SAS2673 ESGG-ESSA
Flight info
| Callsign | SAS2673 |
|---|---|
| Flight time | 0h 42m |
| Altitude | 29000 |
| Route | LABAN4J LABAN N873 ARS T317 ELTOK ELTOK7P |
| Aircraft | A320/M-SDE3FGHIRWY/LB1 |
Departure
| Time | 2026-05-01 10:16 |
|---|---|
| Airport | Göteborg Landvetter Airport (ESGG) |
Arrival
| Time | 2026-05-01 10:58 |
|---|---|
| Airport | Stockholm-Arlanda Airport (ESSA) |
| Time | Latitude | Longitude | Altitude | Speed | Heading |
|---|---|---|---|---|---|
| 2026-05-01 09:55 | 57.66607 | 12.29174 | 516 ft | 0 kts | 116° |
| 2026-05-01 10:09 | 57.66609 | 12.29169 | 516 ft | 3 kts | 116° |
| 2026-05-01 10:09 | 57.66619 | 12.29125 | 516 ft | 4 kts | 111° |
| 2026-05-01 10:09 | 57.66627 | 12.29077 | 516 ft | 4 kts | 99° |
| 2026-05-01 10:10 | 57.66628 | 12.29030 | 516 ft | 4 kts | 65° |
| 2026-05-01 10:10 | 57.66619 | 12.29008 | 516 ft | 1 kts | 26° |
| 2026-05-01 10:10 | 57.66616 | 12.29005 | 516 ft | 0 kts | 26° |
| 2026-05-01 10:12 | 57.66619 | 12.29008 | 516 ft | 1 kts | 26° |
| 2026-05-01 10:12 | 57.66633 | 12.29021 | 516 ft | 4 kts | 27° |
| 2026-05-01 10:12 | 57.66730 | 12.29114 | 516 ft | 11 kts | 23° |
| 2026-05-01 10:13 | 57.66796 | 12.29022 | 516 ft | 16 kts | 299° |
| 2026-05-01 10:13 | 57.66870 | 12.28869 | 513 ft | 17 kts | 359° |
| 2026-05-01 10:13 | 57.66983 | 12.28970 | 514 ft | 19 kts | 26° |
| 2026-05-01 10:14 | 57.67253 | 12.29209 | 515 ft | 24 kts | 26° |
| 2026-05-01 10:14 | 57.67394 | 12.29336 | 515 ft | 12 kts | 24° |
| 2026-05-01 10:14 | 57.67458 | 12.29274 | 515 ft | 13 kts | 281° |
| 2026-05-01 10:14 | 57.67455 | 12.29090 | 515 ft | 14 kts | 257° |
| 2026-05-01 10:15 | 57.67353 | 12.28952 | 515 ft | 36 kts | 207° |
| 2026-05-01 10:15 | 57.66898 | 12.28538 | 515 ft | 106 kts | 206° |
| 2026-05-01 10:15 | 57.66067 | 12.27780 | 512 ft | 158 kts | 207° |
| 2026-05-01 10:15 | 57.65029 | 12.26892 | 975 ft | 166 kts | 211° |
| 2026-05-01 10:16 | 57.63958 | 12.26004 | 1681 ft | 172 kts | 210° |
| 2026-05-01 10:16 | 57.62809 | 12.25265 | 2362 ft | 182 kts | 193° |
| 2026-05-01 10:16 | 57.60301 | 12.26974 | 3499 ft | 212 kts | 150° |
| 2026-05-01 10:17 | 57.59050 | 12.28728 | 3884 ft | 239 kts | 141° |
| 2026-05-01 10:17 | 57.57261 | 12.34365 | 5353 ft | 271 kts | 97° |
| 2026-05-01 10:17 | 57.57487 | 12.37851 | 6244 ft | 275 kts | 69° |
| 2026-05-01 10:18 | 57.58841 | 12.44412 | 8011 ft | 283 kts | 66° |
| 2026-05-01 10:18 | 57.59666 | 12.47938 | 8546 ft | 300 kts | 65° |
| 2026-05-01 10:18 | 57.60526 | 12.51528 | 9333 ft | 306 kts | 65° |
| 2026-05-01 10:19 | 57.61456 | 12.55071 | 10159 ft | 310 kts | 58° |
| 2026-05-01 10:19 | 57.62735 | 12.58387 | 10679 ft | 324 kts | 47° |
| 2026-05-01 10:19 | 57.64416 | 12.61375 | 11001 ft | 340 kts | 35° |
| 2026-05-01 10:20 | 57.68473 | 12.66570 | 12132 ft | 359 kts | 32° |
| 2026-05-01 10:20 | 57.70517 | 12.69176 | 12815 ft | 363 kts | 32° |
| 2026-05-01 10:20 | 57.72619 | 12.71862 | 13539 ft | 367 kts | 32° |
| 2026-05-01 10:20 | 57.74736 | 12.74571 | 14243 ft | 371 kts | 32° |
| 2026-05-01 10:21 | 57.76876 | 12.77313 | 14884 ft | 374 kts | 32° |
| 2026-05-01 10:21 | 57.81198 | 12.82871 | 16189 ft | 379 kts | 32° |
| 2026-05-01 10:21 | 57.83381 | 12.85690 | 16827 ft | 382 kts | 31° |
| 2026-05-01 10:22 | 57.87781 | 12.91382 | 18166 ft | 386 kts | 32° |
| 2026-05-01 10:22 | 57.92232 | 12.97143 | 19384 ft | 391 kts | 31° |
| 2026-05-01 10:23 | 57.94487 | 13.00058 | 19976 ft | 394 kts | 31° |
| 2026-05-01 10:23 | 57.99030 | 13.05939 | 21172 ft | 399 kts | 31° |
| 2026-05-01 10:23 | 58.01331 | 13.08928 | 21748 ft | 402 kts | 32° |
| 2026-05-01 10:24 | 58.05953 | 13.14962 | 22875 ft | 407 kts | 32° |
| 2026-05-01 10:24 | 58.10631 | 13.21104 | 23968 ft | 412 kts | 32° |
| 2026-05-01 10:25 | 58.15367 | 13.27365 | 24851 ft | 418 kts | 33° |
| 2026-05-01 10:25 | 58.19550 | 13.35174 | 25672 ft | 428 kts | 47° |
| 2026-05-01 10:26 | 58.21464 | 13.39423 | 26085 ft | 430 kts | 47° |
| 2026-05-01 10:26 | 58.23436 | 13.43806 | 26495 ft | 432 kts | 47° |
| 2026-05-01 10:26 | 58.27341 | 13.52488 | 27274 ft | 437 kts | 47° |
| 2026-05-01 10:27 | 58.31309 | 13.61339 | 28053 ft | 443 kts | 47° |
| 2026-05-01 10:27 | 58.35323 | 13.70338 | 28746 ft | 449 kts | 47° |
| 2026-05-01 10:28 | 58.37347 | 13.74889 | 29110 ft | 452 kts | 47° |
| 2026-05-01 10:28 | 58.41376 | 13.83977 | 29293 ft | 439 kts | 47° |
| 2026-05-01 10:28 | 58.43336 | 13.88404 | 29289 ft | 435 kts | 47° |
| 2026-05-01 10:29 | 58.49171 | 14.01632 | 29290 ft | 433 kts | 47° |
| 2026-05-01 10:30 | 58.56918 | 14.19333 | 29274 ft | 435 kts | 47° |
| 2026-05-01 10:31 | 58.64011 | 14.35670 | 29274 ft | 435 kts | 47° |
| 2026-05-01 10:32 | 58.69814 | 14.49114 | 29278 ft | 435 kts | 47° |
| 2026-05-01 10:33 | 58.77535 | 14.67090 | 29297 ft | 435 kts | 47° |
| 2026-05-01 10:34 | 58.83299 | 14.80618 | 29293 ft | 434 kts | 47° |
| 2026-05-01 10:34 | 58.87113 | 14.89613 | 28970 ft | 427 kts | 47° |
| 2026-05-01 10:35 | 58.90822 | 14.98391 | 28428 ft | 422 kts | 47° |
| 2026-05-01 10:35 | 58.92672 | 15.02783 | 28157 ft | 420 kts | 47° |
| 2026-05-01 10:35 | 58.94509 | 15.07149 | 27892 ft | 418 kts | 47° |
| 2026-05-01 10:35 | 58.96344 | 15.11522 | 27616 ft | 417 kts | 47° |
| 2026-05-01 10:36 | 58.99982 | 15.20207 | 27105 ft | 414 kts | 47° |
| 2026-05-01 10:36 | 59.01798 | 15.24557 | 26845 ft | 414 kts | 47° |
| 2026-05-01 10:36 | 59.03604 | 15.28890 | 26588 ft | 413 kts | 47° |
| 2026-05-01 10:37 | 59.05403 | 15.33219 | 26324 ft | 411 kts | 47° |
| 2026-05-01 10:37 | 59.08979 | 15.41848 | 25833 ft | 408 kts | 47° |
| 2026-05-01 10:37 | 59.10761 | 15.46153 | 25594 ft | 407 kts | 47° |
| 2026-05-01 10:38 | 59.12527 | 15.50432 | 25343 ft | 406 kts | 47° |
| 2026-05-01 10:38 | 59.14293 | 15.54719 | 25101 ft | 404 kts | 47° |
| 2026-05-01 10:38 | 59.16040 | 15.58976 | 24864 ft | 401 kts | 47° |
| 2026-05-01 10:38 | 59.17766 | 15.63196 | 24621 ft | 399 kts | 46° |
| 2026-05-01 10:39 | 59.19501 | 15.67435 | 24372 ft | 398 kts | 46° |
| 2026-05-01 10:39 | 59.21229 | 15.71656 | 24145 ft | 396 kts | 46° |
| 2026-05-01 10:39 | 59.22944 | 15.75850 | 23920 ft | 396 kts | 46° |
| 2026-05-01 10:39 | 59.24664 | 15.80063 | 23671 ft | 396 kts | 46° |
| 2026-05-01 10:40 | 59.26378 | 15.84275 | 23394 ft | 395 kts | 46° |
| 2026-05-01 10:40 | 59.28087 | 15.88488 | 23123 ft | 394 kts | 46° |
| 2026-05-01 10:40 | 59.29785 | 15.92682 | 22846 ft | 393 kts | 46° |
| 2026-05-01 10:40 | 59.31479 | 15.96868 | 22571 ft | 391 kts | 46° |
| 2026-05-01 10:41 | 59.33165 | 16.01035 | 22305 ft | 390 kts | 46° |
| 2026-05-01 10:41 | 59.34844 | 16.05196 | 22042 ft | 389 kts | 46° |
| 2026-05-01 10:41 | 59.38177 | 16.13512 | 21518 ft | 386 kts | 46° |
| 2026-05-01 10:42 | 59.39829 | 16.17650 | 21278 ft | 385 kts | 46° |
| 2026-05-01 10:42 | 59.41479 | 16.21780 | 21175 ft | 384 kts | 46° |
| 2026-05-01 10:42 | 59.43128 | 16.25900 | 21197 ft | 384 kts | 46° |
| 2026-05-01 10:42 | 59.44782 | 16.30035 | 21214 ft | 385 kts | 46° |
| 2026-05-01 10:43 | 59.46438 | 16.34174 | 21195 ft | 386 kts | 46° |
| 2026-05-01 10:43 | 59.48097 | 16.38332 | 20606 ft | 391 kts | 46° |
| 2026-05-01 10:43 | 59.49800 | 16.42605 | 19793 ft | 400 kts | 47° |
| 2026-05-01 10:43 | 59.51480 | 16.46850 | 19176 ft | 394 kts | 47° |
| 2026-05-01 10:44 | 59.53170 | 16.51151 | 18274 ft | 389 kts | 47° |
| 2026-05-01 10:44 | 59.54767 | 16.55235 | 17756 ft | 372 kts | 47° |
| 2026-05-01 10:44 | 59.56312 | 16.59194 | 17303 ft | 356 kts | 47° |
| 2026-05-01 10:44 | 59.57796 | 16.62937 | 16865 ft | 340 kts | 43° |
| 2026-05-01 10:45 | 59.59439 | 16.66143 | 16443 ft | 322 kts | 33° |
| 2026-05-01 10:45 | 59.61234 | 16.68734 | 16043 ft | 322 kts | 29° |
| 2026-05-01 10:45 | 59.63066 | 16.71297 | 15618 ft | 322 kts | 29° |
| 2026-05-01 10:45 | 59.64891 | 16.73871 | 15205 ft | 322 kts | 30° |
| 2026-05-01 10:46 | 59.66712 | 16.76461 | 14788 ft | 322 kts | 30° |
| 2026-05-01 10:46 | 59.68530 | 16.79059 | 14385 ft | 323 kts | 30° |
| 2026-05-01 10:46 | 59.70357 | 16.81668 | 13944 ft | 324 kts | 30° |
| 2026-05-01 10:46 | 59.72187 | 16.84278 | 13492 ft | 324 kts | 30° |
| 2026-05-01 10:47 | 59.74013 | 16.86891 | 13063 ft | 323 kts | 31° |
| 2026-05-01 10:47 | 59.75831 | 16.89498 | 12635 ft | 322 kts | 31° |
| 2026-05-01 10:47 | 59.77648 | 16.92105 | 12229 ft | 321 kts | 31° |
| 2026-05-01 10:47 | 59.79443 | 16.94707 | 11804 ft | 322 kts | 34° |
| 2026-05-01 10:48 | 59.81033 | 16.97885 | 11388 ft | 327 kts | 49° |
| 2026-05-01 10:48 | 59.82212 | 17.01800 | 10867 ft | 335 kts | 63° |
| 2026-05-01 10:48 | 59.82873 | 17.06320 | 10352 ft | 342 kts | 81° |
| 2026-05-01 10:48 | 59.83120 | 17.10935 | 10234 ft | 331 kts | 83° |
| 2026-05-01 10:49 | 59.83367 | 17.15423 | 10080 ft | 322 kts | 82° |
| 2026-05-01 10:49 | 59.83620 | 17.19817 | 9743 ft | 319 kts | 82° |
| 2026-05-01 10:49 | 59.83627 | 17.24215 | 9391 ft | 318 kts | 97° |
| 2026-05-01 10:49 | 59.83090 | 17.28458 | 9023 ft | 316 kts | 112° |
| 2026-05-01 10:50 | 59.82096 | 17.32328 | 8663 ft | 314 kts | 121° |
| 2026-05-01 10:50 | 59.81046 | 17.36054 | 8332 ft | 312 kts | 120° |
| 2026-05-01 10:50 | 59.79974 | 17.39869 | 7992 ft | 310 kts | 120° |
| 2026-05-01 10:50 | 59.78926 | 17.43598 | 7673 ft | 309 kts | 120° |
| 2026-05-01 10:51 | 59.77881 | 17.47309 | 7351 ft | 307 kts | 120° |
| 2026-05-01 10:51 | 59.76840 | 17.50996 | 7016 ft | 305 kts | 120° |
| 2026-05-01 10:51 | 59.75818 | 17.54671 | 6687 ft | 304 kts | 116° |
| 2026-05-01 10:51 | 59.75176 | 17.58640 | 6381 ft | 302 kts | 97° |
| 2026-05-01 10:52 | 59.75138 | 17.62764 | 6045 ft | 297 kts | 80° |
| 2026-05-01 10:52 | 59.75594 | 17.66649 | 5734 ft | 294 kts | 72° |
| 2026-05-01 10:52 | 59.76120 | 17.70579 | 5387 ft | 292 kts | 72° |
| 2026-05-01 10:52 | 59.76629 | 17.74467 | 5263 ft | 282 kts | 72° |
| 2026-05-01 10:53 | 59.77104 | 17.78125 | 4962 ft | 269 kts | 73° |
| 2026-05-01 10:53 | 59.77573 | 17.81757 | 4215 ft | 275 kts | 74° |
| 2026-05-01 10:53 | 59.77781 | 17.85555 | 3564 ft | 278 kts | 91° |
| 2026-05-01 10:53 | 59.77812 | 17.89139 | 3488 ft | 247 kts | 82° |
| 2026-05-01 10:54 | 59.78046 | 17.92350 | 3391 ft | 218 kts | 76° |
| 2026-05-01 10:54 | 59.78162 | 17.95212 | 3147 ft | 207 kts | 100° |
| 2026-05-01 10:54 | 59.77603 | 17.97689 | 2990 ft | 188 kts | 133° |
| 2026-05-01 10:54 | 59.76639 | 17.99181 | 2829 ft | 168 kts | 161° |
| 2026-05-01 10:55 | 59.75554 | 17.99672 | 2685 ft | 155 kts | 186° |
| 2026-05-01 10:55 | 59.74509 | 17.99394 | 2559 ft | 149 kts | 195° |
| 2026-05-01 10:55 | 59.73513 | 17.99032 | 2389 ft | 141 kts | 195° |
| 2026-05-01 10:55 | 59.72546 | 17.98679 | 2104 ft | 141 kts | 195° |
| 2026-05-01 10:56 | 59.71590 | 17.98330 | 1855 ft | 138 kts | 195° |
| 2026-05-01 10:56 | 59.70642 | 17.97985 | 1548 ft | 137 kts | 194° |
| 2026-05-01 10:56 | 59.69714 | 17.97646 | 1268 ft | 135 kts | 193° |
| 2026-05-01 10:56 | 59.68801 | 17.97314 | 1027 ft | 132 kts | 195° |
| 2026-05-01 10:57 | 59.67885 | 17.97019 | 958 ft | 133 kts | 193° |
| 2026-05-01 10:57 | 59.66980 | 17.96673 | 658 ft | 129 kts | 194° |
| 2026-05-01 10:57 | 59.66092 | 17.96320 | 461 ft | 131 kts | 192° |
| 2026-05-01 10:57 | 59.65204 | 17.96013 | 247 ft | 129 kts | 194° |
| 2026-05-01 10:58 | 59.64338 | 17.95694 | 147 ft | 122 kts | 194° |
| 2026-05-01 10:58 | 59.63657 | 17.95434 | 145 ft | 76 kts | 191° |
| 2026-05-01 10:58 | 59.63306 | 17.95316 | 142 ft | 25 kts | 190° |
| 2026-05-01 10:58 | 59.63164 | 17.95261 | 143 ft | 25 kts | 192° |
| 2026-05-01 10:59 | 59.63002 | 17.95147 | 144 ft | 25 kts | 214° |
| 2026-05-01 10:59 | 59.62871 | 17.94933 | 139 ft | 20 kts | 221° |
| 2026-05-01 10:59 | 59.62899 | 17.94758 | 138 ft | 18 kts | 357° |
| 2026-05-01 10:59 | 59.63028 | 17.94810 | 138 ft | 20 kts | 11° |
| 2026-05-01 11:00 | 59.63173 | 17.94863 | 138 ft | 22 kts | 10° |
| 2026-05-01 11:00 | 59.63333 | 17.94921 | 138 ft | 25 kts | 10° |
| 2026-05-01 11:00 | 59.63510 | 17.94985 | 138 ft | 27 kts | 9° |
| 2026-05-01 11:00 | 59.63702 | 17.95046 | 138 ft | 29 kts | 9° |
| 2026-05-01 11:01 | 59.63905 | 17.95126 | 138 ft | 31 kts | 11° |
| 2026-05-01 11:01 | 59.64120 | 17.95203 | 138 ft | 32 kts | 9° |
| 2026-05-01 11:01 | 59.64223 | 17.95232 | 138 ft | 10 kts | 360° |
| 2026-05-01 11:01 | 59.64298 | 17.95205 | 138 ft | 12 kts | 333° |
| 2026-05-01 11:02 | 59.64369 | 17.95088 | 138 ft | 15 kts | 304° |
| 2026-05-01 11:02 | 59.64400 | 17.94877 | 138 ft | 18 kts | 269° |
| 2026-05-01 11:02 | 59.64356 | 17.94641 | 138 ft | 19 kts | 241° |
| 2026-05-01 11:02 | 59.64287 | 17.94400 | 138 ft | 21 kts | 238° |
| 2026-05-01 11:03 | 59.64205 | 17.94149 | 138 ft | 22 kts | 237° |
| 2026-05-01 11:03 | 59.64122 | 17.93880 | 138 ft | 23 kts | 238° |
| 2026-05-01 11:03 | 59.64036 | 17.93620 | 138 ft | 17 kts | 242° |
| 2026-05-01 11:03 | 59.64088 | 17.93482 | 138 ft | 16 kts | 10° |
| 2026-05-01 11:04 | 59.64142 | 17.93411 | 138 ft | 11 kts | 281° |
| 2026-05-01 11:04 | 59.64147 | 17.93361 | 138 ft | 0 kts | 280° |